^^

Nearby METAR Reports

 

EGNV - Tees-Side, United Kingdom
Distance from station: SW 7mi, 11km
Updated: 26/09/2020 14:50
Nearby showers, Mostly cloudy
Nearby showers, Mostly cloudy
 Wind from N
Wind: N 23 mph , 37 km/h
Temperature: 12°C
Dew Point: 6°C
Humidity: 67%
Barometer: 1014 hPa
Summary: Nearby Showers
Clouds: Mostly cloudy
Visibility: 6 miles , 9 km
Cloud details: Few Clouds 762 m
Mostly cloudy 1372 m
2020/09/26 13:50 EGNV 261350Z 35020KT 9000 VCSH FEW025 BKN045 12/06 Q1014
EGXE - Leeming Raf, United Kingdom
Distance from station: SSW 23mi, 37km
Updated: 26/09/2020 13:50
Mostly cloudy
Mostly cloudy
 Wind from NNW
Wind: NNW 21 mph , 33 km/h
Temperature: 11°C
Dew Point: 6°C
Humidity: 72%
Barometer: 1013 hPa
Clouds: Mostly cloudy
Visibility: 6 miles , 10 km
Cloud details: Few Clouds 792 m
Mostly cloudy 1036 m
2020/09/26 12:50 EGXE 261250Z AUTO 34018KT 9999 FEW026/// BKN034/// 11/06 Q1013
 
EGXZ - Topcliffe Raf, United Kingdom
Distance from station: S 27mi, 43km
Updated: 26/09/2020 14:50
Mostly cloudy
Mostly cloudy
 Wind from NNW
Wind: NNW 20 mph , 31 km/h
Temperature: 12°C
Dew Point: 7°C
Humidity: 72%
Barometer: 1013 hPa
Clouds: Mostly cloudy
Visibility: 6 miles , 10 km
Cloud details: Few Clouds 975 m
Mostly cloudy 1189 m
2020/09/26 13:50 EGXZ 261350Z AUTO 34017KT 9999 FEW032/// BKN039/// 12/07 Q1013
EGNT - Newcastle, United Kingdom
Distance from station: NNW 34mi, 54km
Updated: 26/09/2020 14:50
Mostly cloudy
Mostly cloudy
 Wind from N
Wind: N 21 mph , 33 km/h
Temperature: 12°C
Dew Point: 5°C
Humidity: 63%
Barometer: 1014 hPa
Clouds: Mostly cloudy
Visibility: 6 miles , 10 km
Cloud details: Partly cloudy 914 m
Mostly cloudy 1372 m
2020/09/26 13:50 EGNT 261350Z 35018KT 9999 SCT030 BKN045 12/05 Q1014
 
EGXU - Linton-On-Ouse R, United Kingdom
Distance from station: S 37mi, 60km
Updated: 26/09/2020 13:50
Haze, Mostly cloudy
Haze, Mostly cloudy
 Wind from N
Wind: N 22 mph , 35 km/h, Gust: 35 mph , 56 km/h
Temperature: 11°C
Dew Point: 8°C
Humidity: 82%
Barometer: 1013 hPa
Summary: Haze
Clouds: Mostly cloudy
Visibility: 6 miles , 9 km
Cloud details: Few Clouds 579 m
Partly cloudy 671 m
Mostly cloudy 1280 m
2020/09/26 12:50 EGXU 261250Z AUTO 35019G30KT 9000 HZ FEW019/// SCT022/// BKN042/// 11/08 Q1013
EGNM - Leeds And Bradfo, United Kingdom
Distance from station: SSW 52mi, 83km
Updated: 26/09/2020 14:50
Mostly cloudy
Mostly cloudy
 Wind from N
Wind: N 18 mph , 30 km/h, Gust: 32 mph , 52 km/h
Temperature: 11°C
Dew Point: 5°C
Humidity: 67%
Barometer: 1013 hPa
Clouds: Mostly cloudy
Visibility: 6 miles , 10 km
Cloud details: Mostly cloudy 914 m
2020/09/26 13:50 EGNM 261350Z 35016G28KT 9999 BKN030 11/05 Q1013
 
EGOM - Spadeadam, United Kingdom
Distance from station: WNW 58mi, 94km
Updated: 26/09/2020 13:50
Mostly cloudy
Mostly cloudy
 Wind from N
Wind: N 18 mph , 30 km/h, Gust: 33 mph , 54 km/h
Temperature: 9°C
Wind Chill: 5°C
Dew Point: 4°C
Humidity: 71%
Barometer: 1015 hPa
Clouds: Mostly cloudy
Visibility: 6 miles , 10 km
Cloud details: Mostly cloudy 762 m
2020/09/26 12:50 EGOM 261250Z AUTO 01016G29KT 9999 BKN025/// 09/04 Q1015
EGCN - Doncaster Sheffi, United Kingdom
Distance from station: S 77mi, 124km
Updated: 26/09/2020 14:50
Mostly cloudy
Mostly cloudy
 Wind from NNW
Wind: NNW 22 mph , 35 km/h
Temperature: 12°C
Dew Point: 7°C
Humidity: 72%
Barometer: 1013 hPa
Clouds: Mostly cloudy
Visibility: 6 miles , 10 km
Cloud details: Partly cloudy 671 m
Mostly cloudy 1341 m
2020/09/26 13:50 EGCN 261350Z 34019KT 9999 SCT022 BKN044 12/07 Q1013
 
EGNJ - Humberside, United Kingdom
Distance from station: SSE 80mi, 129km
Updated: 26/09/2020 14:50
Overcast
Overcast
 Wind from NNW
Wind: NNW 16 mph , 26 km/h
Temperature: 12°C
Dew Point: 10°C
Humidity: 88%
Barometer: 1011 hPa
Clouds: Overcast
Visibility: 6 miles , 10 km
Cloud details: Mostly cloudy 244 m
Overcast 518 m
2020/09/26 13:50 EGNJ 261350Z AUTO 33014KT 9999 BKN008/// OVC017/// 12/10 Q1011
EGNH - Blackpool Airpor, United Kingdom
Distance from station: SW 90mi, 145km
Updated: 26/09/2020 14:50
Mostly cloudy
Mostly cloudy
 Wind from N
Wind: N 13 mph , 20 km/h
Temperature: 13°C
Dew Point: 4°C
Humidity: 55%
Barometer: 1016 hPa
Clouds: Mostly cloudy
Visibility: 6 miles , 10 km
Cloud details: Partly cloudy 1158 m
Mostly cloudy 1311 m
2020/09/26 13:50 EGNH 261350Z 36011KT 330V040 9999 SCT038 BKN043 13/04 Q1016
 
EGXP - Scampton Raf, United Kingdom
Distance from station: SSE 94mi, 151km
Updated: 26/09/2020 13:50
Overcast
Overcast
 Wind from NNW
Wind: NNW 18 mph , 30 km/h
Temperature: 11°C
Dew Point: 6°C
Humidity: 72%
Barometer: 1010 hPa
Clouds: Overcast
Visibility: 6 miles , 10 km
Cloud details: Overcast 610 m
2020/09/26 12:50 EGXP 261250Z AUTO 33016KT 9999 // OVC020/// 11/06 Q1010
EGCC - Manchester Intl, United Kingdom
Distance from station: SSW 94mi, 152km
Updated: 26/09/2020 14:50
Overcast
Overcast
 Wind from NNW
Wind: NNW 12 mph , 19 km/h
Temperature: 12°C
Dew Point: 4°C
Humidity: 58%
Barometer: 1015 hPa
Clouds: Overcast
Visibility: 6 miles , 10 km
Cloud details: Mostly cloudy 1097 m
Overcast 1463 m
2020/09/26 13:50 EGCC 261350Z AUTO 33010KT 9999 BKN036 OVC048 12/04 Q1015 NOSIG